sensor_id;sensor_type;location;lat;lon;timestamp;pressure;altitude;pressure_sealevel;temperature;humidity
84188;BME280;76752;45.648;13.764;2024-03-02T00:02:13;100802.94;;;21.91;55.16
84188;BME280;76752;45.648;13.764;2024-03-02T00:04:39;100808.28;;;21.91;54.89
84188;BME280;76752;45.648;13.764;2024-03-02T00:07:06;100807.47;;;21.91;55.30
84188;BME280;76752;45.648;13.764;2024-03-02T00:09:32;100802.34;;;21.89;55.21
84188;BME280;76752;45.648;13.764;2024-03-02T00:12:00;100798.81;;;21.89;54.69
84188;BME280;76752;45.648;13.764;2024-03-02T00:14:29;100811.44;;;21.88;55.28
84188;BME280;76752;45.648;13.764;2024-03-02T00:16:56;100806.06;;;21.88;55.26
84188;BME280;76752;45.648;13.764;2024-03-02T00:19:22;100803.38;;;21.88;55.28
84188;BME280;76752;45.648;13.764;2024-03-02T00:21:48;100810.81;;;21.86;54.71
84188;BME280;76752;45.648;13.764;2024-03-02T00:24:24;100812.69;;;21.85;55.02
84188;BME280;76752;45.648;13.764;2024-03-02T00:26:55;100814.53;;;21.85;54.60
84188;BME280;76752;45.648;13.764;2024-03-02T00:29:21;100812.91;;;21.84;54.75
84188;BME280;76752;45.648;13.764;2024-03-02T00:31:46;100820.97;;;21.84;55.27
84188;BME280;76752;45.648;13.764;2024-03-02T00:34:14;100822.00;;;21.83;55.23
84188;BME280;76752;45.648;13.764;2024-03-02T00:36:41;100816.88;;;21.81;54.65
84188;BME280;76752;45.648;13.764;2024-03-02T00:39:07;100825.75;;;21.82;54.54
84188;BME280;76752;45.648;13.764;2024-03-02T00:41:33;100821.41;;;21.81;55.21
84188;BME280;76752;45.648;13.764;2024-03-02T00:44:01;100817.09;;;21.80;55.12
84188;BME280;76752;45.648;13.764;2024-03-02T00:46:37;100823.28;;;21.80;54.87
84188;BME280;76752;45.648;13.764;2024-03-02T00:49:04;100814.63;;;21.78;55.21
84188;BME280;76752;45.648;13.764;2024-03-02T00:51:32;100821.63;;;21.79;54.71
84188;BME280;76752;45.648;13.764;2024-03-02T00:54:00;100821.03;;;21.77;55.34
84188;BME280;76752;45.648;13.764;2024-03-02T00:56:26;100829.09;;;21.77;55.18
84188;BME280;76752;45.648;13.764;2024-03-02T00:58:52;100822.91;;;21.77;55.34
84188;BME280;76752;45.648;13.764;2024-03-02T01:01:19;100822.91;;;21.77;55.16
84188;BME280;76752;45.648;13.764;2024-03-02T01:03:47;100815.88;;;21.76;55.76
84188;BME280;76752;45.648;13.764;2024-03-02T01:06:14;100815.06;;;21.75;55.20
84188;BME280;76752;45.648;13.764;2024-03-02T01:08:40;100816.72;;;21.76;55.14
84188;BME280;76752;45.648;13.764;2024-03-02T01:11:06;100811.53;;;21.75;54.75
84188;BME280;76752;45.648;13.764;2024-03-02T01:13:32;100801.84;;;21.74;54.47
84188;BME280;76752;45.648;13.764;2024-03-02T01:15:58;100809.31;;;21.72;54.80
84188;BME280;76752;45.648;13.764;2024-03-02T01:18:24;100803.34;;;21.70;54.70
84188;BME280;76752;45.648;13.764;2024-03-02T01:20:49;100802.31;;;21.71;55.16
84188;BME280;76752;45.648;13.764;2024-03-02T01:23:20;100801.72;;;21.69;55.29
84188;BME280;76752;45.648;13.764;2024-03-02T01:25:46;100800.06;;;21.68;55.15
84188;BME280;76752;45.648;13.764;2024-03-02T01:28:12;100795.75;;;21.67;54.68
84188;BME280;76752;45.648;13.764;2024-03-02T01:30:38;100803.81;;;21.67;55.37
84188;BME280;76752;45.648;13.764;2024-03-02T01:33:04;100798.63;;;21.65;55.55
84188;BME280;76752;45.648;13.764;2024-03-02T01:35:31;100796.97;;;21.64;54.85
84188;BME280;76752;45.648;13.764;2024-03-02T01:37:57;100804.22;;;21.64;55.29
84188;BME280;76752;45.648;13.764;2024-03-02T01:40:23;100801.75;;;21.62;54.70
84188;BME280;76752;45.648;13.764;2024-03-02T01:42:52;100810.63;;;21.63;55.12
84188;BME280;76752;45.648;13.764;2024-03-02T01:45:18;100804.66;;;21.61;54.68
84188;BME280;76752;45.648;13.764;2024-03-02T01:47:44;100795.78;;;21.60;55.17
84188;BME280;76752;45.648;13.764;2024-03-02T01:50:13;100805.72;;;21.60;55.35
84188;BME280;76752;45.648;13.764;2024-03-02T01:52:39;100803.03;;;21.60;55.44
84188;BME280;76752;45.648;13.764;2024-03-02T01:55:05;100794.38;;;21.58;55.34
84188;BME280;76752;45.648;13.764;2024-03-02T01:57:32;100794.38;;;21.58;55.40
84188;BME280;76752;45.648;13.764;2024-03-02T01:59:58;100791.69;;;21.58;55.23
84188;BME280;76752;45.648;13.764;2024-03-02T02:02:24;100782.00;;;21.56;55.05
84188;BME280;76752;45.648;13.764;2024-03-02T02:04:51;100788.38;;;21.55;55.41
84188;BME280;76752;45.648;13.764;2024-03-02T02:07:17;100792.13;;;21.54;55.49
84188;BME280;76752;45.648;13.764;2024-03-02T02:09:43;100793.16;;;21.53;55.61
84188;BME280;76752;45.648;13.764;2024-03-02T02:12:09;100787.78;;;21.53;55.78
84188;BME280;76752;45.648;13.764;2024-03-02T02:14:35;100789.66;;;21.53;55.31
84188;BME280;76752;45.648;13.764;2024-03-02T02:17:01;100781.81;;;21.51;56.04
84188;BME280;76752;45.648;13.764;2024-03-02T02:19:26;100781.81;;;21.51;56.16
84188;BME280;76752;45.648;13.764;2024-03-02T02:21:52;100786.38;;;21.51;56.37
84188;BME280;76752;45.648;13.764;2024-03-02T02:24:19;100781.00;;;21.51;56.38
84188;BME280;76752;45.648;13.764;2024-03-02T02:26:45;100782.06;;;21.50;56.28
84188;BME280;76752;45.648;13.764;2024-03-02T02:29:12;100780.41;;;21.49;55.55
84188;BME280;76752;45.648;13.764;2024-03-02T02:31:39;100779.59;;;21.48;56.09
84188;BME280;76752;45.648;13.764;2024-03-02T02:34:05;100781.47;;;21.48;55.59
84188;BME280;76752;45.648;13.764;2024-03-02T02:36:33;100780.00;;;21.45;55.59
84188;BME280;76752;45.648;13.764;2024-03-02T02:39:02;100779.00;;;21.46;55.51
84188;BME280;76752;45.648;13.764;2024-03-02T02:41:32;100774.66;;;21.45;56.41
84188;BME280;76752;45.648;13.764;2024-03-02T02:43:58;100777.56;;;21.44;56.38
84188;BME280;76752;45.648;13.764;2024-03-02T02:46:24;100781.06;;;21.44;55.78
84188;BME280;76752;45.648;13.764;2024-03-02T02:48:50;100768.69;;;21.43;55.79
84188;BME280;76752;45.648;13.764;2024-03-02T02:51:18;100775.09;;;21.42;56.24
84188;BME280;76752;45.648;13.764;2024-03-02T02:53:44;100772.41;;;21.42;56.42
84188;BME280;76752;45.648;13.764;2024-03-02T02:56:11;100767.03;;;21.42;56.44
84188;BME280;76752;45.648;13.764;2024-03-02T02:58:37;100776.13;;;21.41;56.51
84188;BME280;76752;45.648;13.764;2024-03-02T03:01:02;100773.44;;;21.41;56.25
84188;BME280;76752;45.648;13.764;2024-03-02T03:03:29;100769.13;;;21.40;55.87
84188;BME280;76752;45.648;13.764;2024-03-02T03:05:55;100773.44;;;21.41;56.54
84188;BME280;76752;45.648;13.764;2024-03-02T03:08:21;100774.50;;;21.40;56.32
84188;BME280;76752;45.648;13.764;2024-03-02T03:10:48;100769.13;;;21.40;56.17
84188;BME280;76752;45.648;13.764;2024-03-02T03:13:15;100778.22;;;21.39;56.33
84188;BME280;76752;45.648;13.764;2024-03-02T03:15:41;100765.84;;;21.38;56.44
84188;BME280;76752;45.648;13.764;2024-03-02T03:18:07;100769.56;;;21.37;56.07
84188;BME280;76752;45.648;13.764;2024-03-02T03:20:33;100775.75;;;21.38;56.90
84188;BME280;76752;45.648;13.764;2024-03-02T03:22:59;100774.13;;;21.37;55.90
84188;BME280;76752;45.648;13.764;2024-03-02T03:25:25;100772.25;;;21.37;56.64
84188;BME280;76752;45.648;13.764;2024-03-02T03:27:51;100767.94;;;21.36;56.55
84188;BME280;76752;45.648;13.764;2024-03-02T03:30:19;100775.16;;;21.36;56.40
84188;BME280;76752;45.648;13.764;2024-03-02T03:32:45;100776.19;;;21.35;56.36
84188;BME280;76752;45.648;13.764;2024-03-02T03:35:10;100779.91;;;21.34;56.03
84188;BME280;76752;45.648;13.764;2024-03-02T03:37:37;100777.84;;;21.36;56.53
84188;BME280;76752;45.648;13.764;2024-03-02T03:40:03;100774.53;;;21.34;56.58
84188;BME280;76752;45.648;13.764;2024-03-02T03:42:35;100775.59;;;21.33;56.01
84188;BME280;76752;45.648;13.764;2024-03-02T03:45:02;100777.44;;;21.32;56.56
84188;BME280;76752;45.648;13.764;2024-03-02T03:47:28;100777.44;;;21.32;56.58
84188;BME280;76752;45.648;13.764;2024-03-02T03:49:54;100779.09;;;21.33;56.10
84188;BME280;76752;45.648;13.764;2024-03-02T03:52:20;100782.00;;;21.32;56.15
84188;BME280;76752;45.648;13.764;2024-03-02T03:54:46;100782.22;;;21.30;56.60
84188;BME280;76752;45.648;13.764;2024-03-02T03:57:12;100782.22;;;21.30;56.87
84188;BME280;76752;45.648;13.764;2024-03-02T03:59:38;100777.91;;;21.29;56.11
84188;BME280;76752;45.648;13.764;2024-03-02T04:02:04;100778.94;;;21.28;56.69
84188;BME280;76752;45.648;13.764;2024-03-02T04:04:29;100779.75;;;21.28;56.74
84188;BME280;76752;45.648;13.764;2024-03-02T04:06:55;100782.44;;;21.28;56.19
84188;BME280;76752;45.648;13.764;2024-03-02T04:09:21;100783.25;;;21.29;56.39
84188;BME280;76752;45.648;13.764;2024-03-02T04:11:47;100783.25;;;21.29;56.79
84188;BME280;76752;45.648;13.764;2024-03-02T04:14:13;100789.22;;;21.31;56.39
84188;BME280;76752;45.648;13.764;2024-03-02T04:16:39;100788.19;;;21.32;56.14
84188;BME280;76752;45.648;13.764;2024-03-02T04:19:05;100787.13;;;21.33;56.14
84188;BME280;76752;45.648;13.764;2024-03-02T04:21:32;100781.56;;;21.35;56.38
84188;BME280;76752;45.648;13.764;2024-03-02T04:23:57;100775.75;;;21.38;56.53
84188;BME280;76752;45.648;13.764;2024-03-02T04:26:24;100779.88;;;21.40;56.63
84188;BME280;76752;45.648;13.764;2024-03-02T04:28:51;100780.47;;;21.42;56.23
84188;BME280;76752;45.648;13.764;2024-03-02T04:31:17;100779.00;;;21.46;56.00
84188;BME280;76752;45.648;13.764;2024-03-02T04:33:43;100780.19;;;21.50;56.04
84188;BME280;76752;45.648;13.764;2024-03-02T04:36:09;100778.69;;;21.54;55.79
84188;BME280;76752;45.648;13.764;2024-03-02T04:38:39;100782.59;;;21.59;55.94
84188;BME280;76752;45.648;13.764;2024-03-02T04:41:06;100787.28;;;21.63;55.62
84188;BME280;76752;45.648;13.764;2024-03-02T04:43:32;100785.81;;;21.67;55.75
84188;BME280;76752;45.648;13.764;2024-03-02T04:45:58;100790.28;;;21.73;55.57
84188;BME280;76752;45.648;13.764;2024-03-02T04:48:24;100784.50;;;21.76;55.63
84188;BME280;76752;45.648;13.764;2024-03-02T04:50:50;100798.06;;;21.81;55.11
84188;BME280;76752;45.648;13.764;2024-03-02T04:53:16;100797.38;;;21.86;55.40
84188;BME280;76752;45.648;13.764;2024-03-02T04:55:42;100791.34;;;21.91;54.75
84188;BME280;76752;45.648;13.764;2024-03-02T04:58:07;100795.47;;;21.93;54.89
84188;BME280;76752;45.648;13.764;2024-03-02T05:00:33;100795.00;;;21.96;55.38
84188;BME280;76752;45.648;13.764;2024-03-02T05:02:59;100803.69;;;21.98;55.10
84188;BME280;76752;45.648;13.764;2024-03-02T05:05:25;100802.41;;;22.01;55.36
84188;BME280;76752;45.648;13.764;2024-03-02T05:07:52;100799.50;;;22.02;55.02
84188;BME280;76752;45.648;13.764;2024-03-02T05:10:18;100802.78;;;22.04;54.92
84188;BME280;76752;45.648;13.764;2024-03-02T05:12:44;100804.41;;;22.05;54.71
84188;BME280;76752;45.648;13.764;2024-03-02T05:15:14;100810.44;;;22.07;54.88
84188;BME280;76752;45.648;13.764;2024-03-02T05:17:41;100803.19;;;22.08;55.09
84188;BME280;76752;45.648;13.764;2024-03-02T05:20:08;100813.72;;;22.09;54.81
84188;BME280;76752;45.648;13.764;2024-03-02T05:22:35;100811.03;;;22.09;55.05
84188;BME280;76752;45.648;13.764;2024-03-02T05:25:01;100814.31;;;22.11;54.81
84188;BME280;76752;45.648;13.764;2024-03-02T05:27:27;100823.19;;;22.12;54.74
84188;BME280;76752;45.648;13.764;2024-03-02T05:29:53;100818.03;;;22.10;54.61
84188;BME280;76752;45.648;13.764;2024-03-02T05:32:19;100818.03;;;22.10;54.55
84188;BME280;76752;45.648;13.764;2024-03-02T05:34:45;100823.41;;;22.10;55.18
84188;BME280;76752;45.648;13.764;2024-03-02T05:37:11;100820.72;;;22.10;55.41
84188;BME280;76752;45.648;13.764;2024-03-02T05:39:37;100823.41;;;22.10;54.77
84188;BME280;76752;45.648;13.764;2024-03-02T05:42:03;100832.53;;;22.09;54.78
84188;BME280;76752;45.648;13.764;2024-03-02T05:44:31;100832.53;;;22.09;55.24
84188;BME280;76752;45.648;13.764;2024-03-02T05:46:57;100837.09;;;22.09;54.91
84188;BME280;76752;45.648;13.764;2024-03-02T05:49:23;100831.72;;;22.09;54.72
84188;BME280;76752;45.648;13.764;2024-03-02T05:51:50;100841.63;;;22.08;55.30
84188;BME280;76752;45.648;13.764;2024-03-02T05:54:15;100844.56;;;22.07;55.08
84188;BME280;76752;45.648;13.764;2024-03-02T05:56:42;100851.75;;;22.06;54.99
84188;BME280;76752;45.648;13.764;2024-03-02T05:59:07;100847.41;;;22.05;55.19
84188;BME280;76752;45.648;13.764;2024-03-02T06:01:41;100853.59;;;22.06;55.45
84188;BME280;76752;45.648;13.764;2024-03-02T06:04:08;100853.81;;;22.04;55.35
84188;BME280;76752;45.648;13.764;2024-03-02T06:06:34;100861.06;;;22.04;55.35
84188;BME280;76752;45.648;13.764;2024-03-02T06:09:01;100858.38;;;22.04;55.17
84188;BME280;76752;45.648;13.764;2024-03-02T06:11:28;100869.34;;;22.02;55.27
84188;BME280;76752;45.648;13.764;2024-03-02T06:13:54;100871.22;;;22.02;54.84
84188;BME280;76752;45.648;13.764;2024-03-02T06:16:21;100871.22;;;22.02;54.80
84188;BME280;76752;45.648;13.764;2024-03-02T06:18:47;100867.72;;;22.01;55.63
84188;BME280;76752;45.648;13.764;2024-03-02T06:21:13;100861.50;;;22.01;55.31
84188;BME280;76752;45.648;13.764;2024-03-02T06:23:39;100864.19;;;22.01;54.90
84188;BME280;76752;45.648;13.764;2024-03-02T06:26:06;100868.75;;;22.00;55.50
84188;BME280;76752;45.648;13.764;2024-03-02T06:28:32;100869.81;;;21.99;55.09
84188;BME280;76752;45.648;13.764;2024-03-02T06:30:58;100869.81;;;21.99;55.16
84188;BME280;76752;45.648;13.764;2024-03-02T06:33:24;100874.13;;;22.00;55.26
84188;BME280;76752;45.648;13.764;2024-03-02T06:35:50;100864.44;;;21.99;55.29
84188;BME280;76752;45.648;13.764;2024-03-02T06:38:16;100869.81;;;21.99;54.92
84188;BME280;76752;45.648;13.764;2024-03-02T06:40:42;100876.81;;;22.00;55.09
84188;BME280;76752;45.648;13.764;2024-03-02T06:43:09;100873.09;;;22.01;55.21
84188;BME280;76752;45.648;13.764;2024-03-02T06:45:35;100873.09;;;22.01;55.05
84188;BME280;76752;45.648;13.764;2024-03-02T06:48:02;100873.69;;;22.03;55.13
84188;BME280;76752;45.648;13.764;2024-03-02T06:50:28;100877.19;;;22.04;55.26
84188;BME280;76752;45.648;13.764;2024-03-02T06:52:53;100884.00;;;22.06;54.93
84188;BME280;76752;45.648;13.764;2024-03-02T06:55:21;100888.34;;;22.07;54.92
84188;BME280;76752;45.648;13.764;2024-03-02T06:57:47;100879.25;;;22.08;54.91
84188;BME280;76752;45.648;13.764;2024-03-02T07:00:13;100884.63;;;22.08;55.33
84188;BME280;76752;45.648;13.764;2024-03-02T07:02:39;100888.94;;;22.09;54.97
84188;BME280;76752;45.648;13.764;2024-03-02T07:05:07;100885.22;;;22.10;55.36
84188;BME280;76752;45.648;13.764;2024-03-02T07:07:33;100892.22;;;22.11;55.16
84188;BME280;76752;45.648;13.764;2024-03-02T07:10:00;100893.28;;;22.10;54.93
84188;BME280;76752;45.648;13.764;2024-03-02T07:12:27;100892.22;;;22.11;55.60
84188;BME280;76752;45.648;13.764;2024-03-02T07:14:53;100908.13;;;22.13;55.93
84188;BME280;76752;45.648;13.764;2024-03-02T07:17:37;100903.56;;;22.13;55.95
84188;BME280;76752;45.648;13.764;2024-03-02T07:20:03;100908.94;;;22.13;55.81
84188;BME280;76752;45.648;13.764;2024-03-02T07:22:29;100912.69;;;22.12;55.68
84188;BME280;76752;45.648;13.764;2024-03-02T07:24:55;100910.00;;;22.12;55.71
84188;BME280;76752;45.648;13.764;2024-03-02T07:27:20;100915.59;;;22.11;55.88
84188;BME280;76752;45.648;13.764;2024-03-02T07:29:47;100910.22;;;22.11;55.35
84188;BME280;76752;45.648;13.764;2024-03-02T07:32:16;100920.97;;;22.11;55.90
84188;BME280;76752;45.648;13.764;2024-03-02T07:34:42;100924.25;;;22.13;56.66
84188;BME280;76752;45.648;13.764;2024-03-02T07:37:08;100924.47;;;22.11;56.36
84188;BME280;76752;45.648;13.764;2024-03-02T07:39:34;100923.88;;;22.09;56.04
84188;BME280;76752;45.648;13.764;2024-03-02T07:42:00;100926.78;;;22.08;55.99
84188;BME280;76752;45.648;13.764;2024-03-02T07:44:26;100943.75;;;22.08;55.86
84188;BME280;76752;45.648;13.764;2024-03-02T07:46:52;100936.06;;;22.05;55.39
84188;BME280;76752;45.648;13.764;2024-03-02T07:49:18;100941.44;;;22.05;56.25
84188;BME280;76752;45.648;13.764;2024-03-02T07:51:45;100947.84;;;22.04;55.99
84188;BME280;76752;45.648;13.764;2024-03-02T07:54:11;100937.34;;;22.03;55.57
84188;BME280;76752;45.648;13.764;2024-03-02T07:56:37;100945.41;;;22.03;55.94
84188;BME280;76752;45.648;13.764;2024-03-02T07:59:04;100942.13;;;22.01;55.87
84188;BME280;76752;45.648;13.764;2024-03-02T08:01:30;100946.66;;;22.00;56.03
84188;BME280;76752;45.648;13.764;2024-03-02T08:04:03;100948.53;;;22.00;55.60
84188;BME280;76752;45.648;13.764;2024-03-02T08:06:29;100953.09;;;21.99;55.38
84188;BME280;76752;45.648;13.764;2024-03-02T08:08:59;100948.75;;;21.98;55.71
84188;BME280;76752;45.648;13.764;2024-03-02T08:11:25;100963.22;;;21.97;56.00
84188;BME280;76752;45.648;13.764;2024-03-02T08:13:52;100957.03;;;21.97;55.91
84188;BME280;76752;45.648;13.764;2024-03-02T08:16:21;100956.19;;;21.96;56.09
84188;BME280;76752;45.648;13.764;2024-03-02T08:18:51;100959.91;;;21.95;56.37
84188;BME280;76752;45.648;13.764;2024-03-02T08:21:17;100960.97;;;21.94;56.10
84188;BME280;76752;45.648;13.764;2024-03-02T08:23:43;100969.03;;;21.94;56.19
84188;BME280;76752;45.648;13.764;2024-03-02T08:26:10;100973.56;;;21.94;56.19
84188;BME280;76752;45.648;13.764;2024-03-02T08:28:37;100971.13;;;21.92;56.40
84188;BME280;76752;45.648;13.764;2024-03-02T08:31:03;100971.13;;;21.92;56.58
84188;BME280;76752;45.648;13.764;2024-03-02T08:33:29;100968.66;;;21.91;56.07
84188;BME280;76752;45.648;13.764;2024-03-02T08:35:55;100968.66;;;21.91;56.13
84188;BME280;76752;45.648;13.764;2024-03-02T08:38:21;100971.56;;;21.89;56.36
84188;BME280;76752;45.648;13.764;2024-03-02T08:40:50;100971.56;;;21.89;56.30
84188;BME280;76752;45.648;13.764;2024-03-02T08:43:16;100969.09;;;21.88;56.02
84188;BME280;76752;45.648;13.764;2024-03-02T08:45:42;100973.66;;;21.87;56.57
84188;BME280;76752;45.648;13.764;2024-03-02T08:48:11;100972.81;;;21.87;56.20
84188;BME280;76752;45.648;13.764;2024-03-02T08:50:38;100970.34;;;21.85;55.91
84188;BME280;76752;45.648;13.764;2024-03-02T08:53:04;100963.91;;;21.86;55.76
84188;BME280;76752;45.648;13.764;2024-03-02T08:55:30;100971.97;;;21.86;55.76
84188;BME280;76752;45.648;13.764;2024-03-02T08:57:56;100969.28;;;21.86;55.79
84188;BME280;76752;45.648;13.764;2024-03-02T09:00:23;100967.44;;;21.87;56.23
84188;BME280;76752;45.648;13.764;2024-03-02T09:02:49;100977.34;;;21.86;55.69
84188;BME280;76752;45.648;13.764;2024-03-02T09:05:14;100977.34;;;21.86;55.60
84188;BME280;76752;45.648;13.764;2024-03-02T09:07:40;100970.34;;;21.85;55.69
84188;BME280;76752;45.648;13.764;2024-03-02T09:10:07;100983.56;;;21.87;55.85
84188;BME280;76752;45.648;13.764;2024-03-02T09:12:33;100984.38;;;21.87;55.45
84188;BME280;76752;45.648;13.764;2024-03-02T09:15:02;100967.44;;;21.87;55.53
84188;BME280;76752;45.648;13.764;2024-03-02T09:17:29;100966.59;;;21.86;55.63
84188;BME280;76752;45.648;13.764;2024-03-02T09:19:55;100976.34;;;21.87;55.88
84188;BME280;76752;45.648;13.764;2024-03-02T09:22:20;100971.97;;;21.86;55.28
84188;BME280;76752;45.648;13.764;2024-03-02T09:24:46;100972.81;;;21.87;55.13
84188;BME280;76752;45.648;13.764;2024-03-02T09:27:12;100970.34;;;21.85;55.12
84188;BME280;76752;45.648;13.764;2024-03-02T09:29:39;100971.16;;;21.85;55.28
84188;BME280;76752;45.648;13.764;2024-03-02T09:32:05;100968.28;;;21.87;54.86
84188;BME280;76752;45.648;13.764;2024-03-02T09:34:32;100973.66;;;21.87;54.95
84188;BME280;76752;45.648;13.764;2024-03-02T09:36:58;100971.16;;;21.85;54.35
84188;BME280;76752;45.648;13.764;2024-03-02T09:39:24;100970.34;;;21.85;54.66
84188;BME280;76752;45.648;13.764;2024-03-02T09:41:50;100971.16;;;21.85;54.51
84188;BME280;76752;45.648;13.764;2024-03-02T09:44:16;100972.41;;;21.83;54.42
84188;BME280;76752;45.648;13.764;2024-03-02T09:46:42;100977.78;;;21.83;54.10
84188;BME280;76752;45.648;13.764;2024-03-02T09:49:12;100971.59;;;21.82;54.76
84188;BME280;76752;45.648;13.764;2024-03-02T09:51:39;100975.09;;;21.83;54.53
84188;BME280;76752;45.648;13.764;2024-03-02T09:54:07;100977.78;;;21.83;54.60
84188;BME280;76752;45.648;13.764;2024-03-02T09:56:33;100974.06;;;21.84;54.32
84188;BME280;76752;45.648;13.764;2024-03-02T09:58:59;100968.69;;;21.84;54.65
84188;BME280;76752;45.648;13.764;2024-03-02T10:01:25;100976.53;;;21.85;54.72
84188;BME280;76752;45.648;13.764;2024-03-02T10:03:51;100975.88;;;21.90;54.28
84188;BME280;76752;45.648;13.764;2024-03-02T10:06:26;100976.03;;;21.95;54.09
84188;BME280;76752;45.648;13.764;2024-03-02T10:08:53;100977.63;;;22.03;54.60
84188;BME280;76752;45.648;13.764;2024-03-02T10:11:40;100973.91;;;22.10;54.40
84188;BME280;76752;45.648;13.764;2024-03-02T10:14:13;100975.09;;;22.14;54.13
84188;BME280;76752;45.648;13.764;2024-03-02T10:16:42;100975.69;;;22.17;54.65
84188;BME280;76752;45.648;13.764;2024-03-02T10:19:21;100977.94;;;22.20;54.41
84188;BME280;76752;45.648;13.764;2024-03-02T10:21:48;100975.63;;;22.23;54.29
84188;BME280;76752;45.648;13.764;2024-03-02T10:24:15;100977.50;;;22.23;54.20
84188;BME280;76752;45.648;13.764;2024-03-02T10:26:41;100968.38;;;22.24;54.18
84188;BME280;76752;45.648;13.764;2024-03-02T10:29:08;100964.66;;;22.25;54.25
84188;BME280;76752;45.648;13.764;2024-03-02T10:31:34;100966.28;;;22.26;53.84
84188;BME280;76752;45.648;13.764;2024-03-02T10:34:00;100960.06;;;22.32;53.84
84188;BME280;76752;45.648;13.764;2024-03-02T10:36:28;100969.94;;;22.38;53.87
84188;BME280;76752;45.648;13.764;2024-03-02T10:38:56;100962.59;;;22.45;53.82
84188;BME280;76752;45.648;13.764;2024-03-02T10:41:26;100970.59;;;22.52;53.86
84188;BME280;76752;45.648;13.764;2024-03-02T10:43:52;100969.69;;;22.58;53.88
84188;BME280;76752;45.648;13.764;2024-03-02T10:46:20;100965.91;;;22.65;53.40
84188;BME280;76752;45.648;13.764;2024-03-02T10:48:48;100967.94;;;22.70;53.65
84188;BME280;76752;45.648;13.764;2024-03-02T10:51:15;100965.00;;;22.71;53.43
84188;BME280;76752;45.648;13.764;2024-03-02T10:53:41;100964.56;;;22.75;53.27
84188;BME280;76752;45.648;13.764;2024-03-02T10:56:07;100958.13;;;22.76;53.03
84188;BME280;76752;45.648;13.764;2024-03-02T10:58:36;100958.72;;;22.78;52.97
84188;BME280;76752;45.648;13.764;2024-03-02T11:01:03;100960.16;;;22.80;53.27
84188;BME280;76752;45.648;13.764;2024-03-02T11:03:33;100958.06;;;22.82;53.03
84188;BME280;76752;45.648;13.764;2024-03-02T11:06:00;100955.38;;;22.82;53.14
84188;BME280;76752;45.648;13.764;2024-03-02T11:08:28;100960.97;;;22.81;53.44
84188;BME280;76752;45.648;13.764;2024-03-02T11:10:58;100960.38;;;22.79;53.47
84188;BME280;76752;45.648;13.764;2024-03-02T11:13:31;100956.03;;;22.78;52.98
84188;BME280;76752;45.648;13.764;2024-03-02T11:16:14;100954.38;;;22.77;53.19
84188;BME280;76752;45.648;13.764;2024-03-02T11:18:44;100952.75;;;22.76;53.48
84188;BME280;76752;45.648;13.764;2024-03-02T11:21:10;100957.31;;;22.75;53.34
84188;BME280;76752;45.648;13.764;2024-03-02T11:23:37;100953.81;;;22.75;53.02
84188;BME280;76752;45.648;13.764;2024-03-02T11:26:21;100949.47;;;22.74;53.15
84188;BME280;76752;45.648;13.764;2024-03-02T11:28:48;100948.06;;;22.71;53.13
84188;BME280;76752;45.648;13.764;2024-03-02T11:31:14;100944.97;;;22.67;53.37
84188;BME280;76752;45.648;13.764;2024-03-02T11:33:40;100954.09;;;22.66;53.47
84188;BME280;76752;45.648;13.764;2024-03-02T11:36:07;100952.69;;;22.64;53.45
84188;BME280;76752;45.648;13.764;2024-03-02T11:38:34;100955.81;;;22.61;53.51
84188;BME280;76752;45.648;13.764;2024-03-02T11:41:01;100956.06;;;22.59;53.84
84188;BME280;76752;45.648;13.764;2024-03-02T11:43:28;100956.06;;;22.59;53.65
84188;BME280;76752;45.648;13.764;2024-03-02T11:45:59;100951.72;;;22.58;53.33
84188;BME280;76752;45.648;13.764;2024-03-02T11:48:25;100958.13;;;22.57;53.77
84188;BME280;76752;45.648;13.764;2024-03-02T11:50:51;100961.84;;;22.56;53.73
84188;BME280;76752;45.648;13.764;2024-03-02T11:53:17;100961.03;;;22.56;53.55
84188;BME280;76752;45.648;13.764;2024-03-02T11:55:44;100956.94;;;22.53;54.10
84188;BME280;76752;45.648;13.764;2024-03-02T11:58:14;100959.63;;;22.53;53.90
84188;BME280;76752;45.648;13.764;2024-03-02T12:00:43;100955.28;;;22.52;54.02
84188;BME280;76752;45.648;13.764;2024-03-02T12:03:12;100963.59;;;22.51;53.89
84188;BME280;76752;45.648;13.764;2024-03-02T12:05:40;100967.31;;;22.50;54.21
84188;BME280;76752;45.648;13.764;2024-03-02T12:08:07;100969.38;;;22.48;53.94
84188;BME280;76752;45.648;13.764;2024-03-02T12:10:34;100965.69;;;22.49;54.02
84188;BME280;76752;45.648;13.764;2024-03-02T12:13:05;100970.25;;;22.48;54.60
84188;BME280;76752;45.648;13.764;2024-03-02T12:15:37;100961.31;;;22.48;54.62
84188;BME280;76752;45.648;13.764;2024-03-02T12:18:03;100963.19;;;22.47;54.56
84188;BME280;76752;45.648;13.764;2024-03-02T12:20:30;100966.94;;;22.46;54.23
84188;BME280;76752;45.648;13.764;2024-03-02T12:23:01;100966.09;;;22.46;54.38
84188;BME280;76752;45.648;13.764;2024-03-02T12:25:27;100969.63;;;22.46;54.61
84188;BME280;76752;45.648;13.764;2024-03-02T12:27:55;100964.25;;;22.46;55.05
84188;BME280;76752;45.648;13.764;2024-03-02T12:30:21;100966.09;;;22.46;54.82
84188;BME280;76752;45.648;13.764;2024-03-02T12:32:48;100966.94;;;22.46;55.36
84188;BME280;76752;45.648;13.764;2024-03-02T12:35:14;100972.31;;;22.46;55.55
84188;BME280;76752;45.648;13.764;2024-03-02T12:37:50;100968.78;;;22.46;55.53
84188;BME280;76752;45.648;13.764;2024-03-02T12:40:17;100969.63;;;22.46;55.60